sensor_id;sensor_type;location;lat;lon;timestamp;P1;durP1;ratioP1;P2;durP2;ratioP2
73869;SDS011;64924;42.140;24.762;2024-03-22T00:01:49;14.13;;;10.55;;
73869;SDS011;64924;42.140;24.762;2024-03-22T00:04:15;16.75;;;10.27;;
73869;SDS011;64924;42.140;24.762;2024-03-22T00:06:41;18.73;;;12.30;;
73869;SDS011;64924;42.140;24.762;2024-03-22T00:09:08;19.17;;;11.80;;
73869;SDS011;64924;42.140;24.762;2024-03-22T00:11:34;17.90;;;11.80;;
73869;SDS011;64924;42.140;24.762;2024-03-22T00:14:00;20.60;;;10.95;;
73869;SDS011;64924;42.140;24.762;2024-03-22T00:16:26;18.23;;;11.75;;
73869;SDS011;64924;42.140;24.762;2024-03-22T00:18:52;17.23;;;11.77;;
73869;SDS011;64924;42.140;24.762;2024-03-22T00:21:17;17.88;;;11.00;;
73869;SDS011;64924;42.140;24.762;2024-03-22T00:23:43;19.08;;;10.48;;
73869;SDS011;64924;42.140;24.762;2024-03-22T00:26:12;15.27;;;10.30;;
73869;SDS011;64924;42.140;24.762;2024-03-22T00:28:37;18.85;;;11.30;;
73869;SDS011;64924;42.140;24.762;2024-03-22T00:31:03;18.70;;;11.05;;
73869;SDS011;64924;42.140;24.762;2024-03-22T00:33:28;18.50;;;11.05;;
73869;SDS011;64924;42.140;24.762;2024-03-22T00:35:54;16.48;;;12.02;;
73869;SDS011;64924;42.140;24.762;2024-03-22T00:38:21;15.07;;;10.88;;
73869;SDS011;64924;42.140;24.762;2024-03-22T00:40:47;21.63;;;12.13;;
73869;SDS011;64924;42.140;24.762;2024-03-22T00:43:12;15.82;;;10.88;;
73869;SDS011;64924;42.140;24.762;2024-03-22T00:45:40;18.13;;;11.30;;
73869;SDS011;64924;42.140;24.762;2024-03-22T00:48:06;17.45;;;10.90;;
73869;SDS011;64924;42.140;24.762;2024-03-22T00:50:33;17.85;;;10.80;;
73869;SDS011;64924;42.140;24.762;2024-03-22T00:52:58;18.70;;;10.80;;
73869;SDS011;64924;42.140;24.762;2024-03-22T00:55:24;16.88;;;10.88;;
73869;SDS011;64924;42.140;24.762;2024-03-22T00:57:50;16.52;;;11.68;;
73869;SDS011;64924;42.140;24.762;2024-03-22T01:00:16;17.77;;;11.13;;
73869;SDS011;64924;42.140;24.762;2024-03-22T01:02:43;17.10;;;11.05;;
73869;SDS011;64924;42.140;24.762;2024-03-22T01:05:08;17.58;;;11.65;;
73869;SDS011;64924;42.140;24.762;2024-03-22T01:07:35;18.45;;;12.02;;
73869;SDS011;64924;42.140;24.762;2024-03-22T01:10:01;16.75;;;10.95;;
73869;SDS011;64924;42.140;24.762;2024-03-22T01:12:26;20.08;;;11.85;;
73869;SDS011;64924;42.140;24.762;2024-03-22T01:14:52;19.58;;;12.05;;
73869;SDS011;64924;42.140;24.762;2024-03-22T01:17:17;18.42;;;11.63;;
73869;SDS011;64924;42.140;24.762;2024-03-22T01:19:43;20.20;;;12.77;;
73869;SDS011;64924;42.140;24.762;2024-03-22T01:22:08;18.75;;;11.43;;
73869;SDS011;64924;42.140;24.762;2024-03-22T01:24:33;20.38;;;11.52;;
73869;SDS011;64924;42.140;24.762;2024-03-22T01:26:59;18.15;;;12.50;;
73869;SDS011;64924;42.140;24.762;2024-03-22T01:29:24;19.00;;;12.20;;
73869;SDS011;64924;42.140;24.762;2024-03-22T01:31:50;22.17;;;13.43;;
73869;SDS011;64924;42.140;24.762;2024-03-22T01:34:15;22.02;;;12.55;;
73869;SDS011;64924;42.140;24.762;2024-03-22T01:36:41;24.30;;;14.82;;
73869;SDS011;64924;42.140;24.762;2024-03-22T01:39:06;22.63;;;14.52;;
73869;SDS011;64924;42.140;24.762;2024-03-22T01:41:32;20.33;;;14.25;;
73869;SDS011;64924;42.140;24.762;2024-03-22T01:43:58;40.97;;;27.05;;
73869;SDS011;64924;42.140;24.762;2024-03-22T01:46:23;46.95;;;29.05;;
73869;SDS011;64924;42.140;24.762;2024-03-22T01:48:49;28.67;;;19.05;;
73869;SDS011;64924;42.140;24.762;2024-03-22T01:51:16;22.60;;;15.07;;
73869;SDS011;64924;42.140;24.762;2024-03-22T01:53:42;21.65;;;13.73;;
73869;SDS011;64924;42.140;24.762;2024-03-22T01:56:08;22.38;;;14.27;;
73869;SDS011;64924;42.140;24.762;2024-03-22T01:58:34;23.73;;;13.95;;
73869;SDS011;64924;42.140;24.762;2024-03-22T02:01:00;20.58;;;12.88;;
73869;SDS011;64924;42.140;24.762;2024-03-22T02:03:25;21.45;;;13.77;;
73869;SDS011;64924;42.140;24.762;2024-03-22T02:05:51;19.25;;;12.88;;
73869;SDS011;64924;42.140;24.762;2024-03-22T02:08:17;20.88;;;13.23;;
73869;SDS011;64924;42.140;24.762;2024-03-22T02:10:42;23.90;;;13.52;;
73869;SDS011;64924;42.140;24.762;2024-03-22T02:13:08;19.65;;;13.48;;
73869;SDS011;64924;42.140;24.762;2024-03-22T02:15:34;22.40;;;14.48;;
73869;SDS011;64924;42.140;24.762;2024-03-22T02:17:59;20.63;;;14.13;;
73869;SDS011;64924;42.140;24.762;2024-03-22T02:20:27;21.88;;;14.40;;
73869;SDS011;64924;42.140;24.762;2024-03-22T02:22:52;21.75;;;14.48;;
73869;SDS011;64924;42.140;24.762;2024-03-22T02:25:18;22.15;;;14.07;;
73869;SDS011;64924;42.140;24.762;2024-03-22T02:27:44;22.92;;;14.95;;
73869;SDS011;64924;42.140;24.762;2024-03-22T02:30:09;21.55;;;15.00;;
73869;SDS011;64924;42.140;24.762;2024-03-22T02:32:35;22.60;;;14.88;;
73869;SDS011;64924;42.140;24.762;2024-03-22T02:35:02;19.85;;;14.55;;
73869;SDS011;64924;42.140;24.762;2024-03-22T02:37:27;25.92;;;15.07;;
73869;SDS011;64924;42.140;24.762;2024-03-22T02:39:53;20.92;;;15.25;;
73869;SDS011;64924;42.140;24.762;2024-03-22T02:42:18;22.70;;;15.55;;
73869;SDS011;64924;42.140;24.762;2024-03-22T02:44:44;21.80;;;15.68;;
73869;SDS011;64924;42.140;24.762;2024-03-22T02:47:09;23.42;;;15.65;;
73869;SDS011;64924;42.140;24.762;2024-03-22T02:49:35;22.65;;;16.23;;
73869;SDS011;64924;42.140;24.762;2024-03-22T02:52:01;25.88;;;17.33;;
73869;SDS011;64924;42.140;24.762;2024-03-22T02:54:27;26.33;;;16.83;;
73869;SDS011;64924;42.140;24.762;2024-03-22T02:56:52;23.15;;;16.40;;
73869;SDS011;64924;42.140;24.762;2024-03-22T02:59:18;23.85;;;16.13;;
73869;SDS011;64924;42.140;24.762;2024-03-22T03:01:43;24.55;;;17.08;;
73869;SDS011;64924;42.140;24.762;2024-03-22T03:04:08;22.27;;;15.85;;
73869;SDS011;64924;42.140;24.762;2024-03-22T03:06:34;26.00;;;16.52;;
73869;SDS011;64924;42.140;24.762;2024-03-22T03:08:59;23.02;;;15.77;;
73869;SDS011;64924;42.140;24.762;2024-03-22T03:11:30;22.50;;;15.32;;
73869;SDS011;64924;42.140;24.762;2024-03-22T03:13:56;23.33;;;15.73;;
73869;SDS011;64924;42.140;24.762;2024-03-22T03:16:21;22.38;;;14.65;;
73869;SDS011;64924;42.140;24.762;2024-03-22T03:18:47;20.85;;;14.52;;
73869;SDS011;64924;42.140;24.762;2024-03-22T03:21:12;24.25;;;15.93;;
73869;SDS011;64924;42.140;24.762;2024-03-22T03:23:38;27.90;;;15.63;;
73869;SDS011;64924;42.140;24.762;2024-03-22T03:26:03;23.80;;;15.13;;
73869;SDS011;64924;42.140;24.762;2024-03-22T03:28:29;24.00;;;15.65;;
73869;SDS011;64924;42.140;24.762;2024-03-22T03:30:54;21.42;;;14.90;;
73869;SDS011;64924;42.140;24.762;2024-03-22T03:33:20;22.45;;;14.90;;
73869;SDS011;64924;42.140;24.762;2024-03-22T03:35:46;25.50;;;15.77;;
73869;SDS011;64924;42.140;24.762;2024-03-22T03:38:12;25.25;;;14.82;;
73869;SDS011;64924;42.140;24.762;2024-03-22T03:40:37;23.83;;;15.73;;
73869;SDS011;64924;42.140;24.762;2024-03-22T03:43:03;28.85;;;16.15;;
73869;SDS011;64924;42.140;24.762;2024-03-22T03:45:28;24.98;;;15.45;;
73869;SDS011;64924;42.140;24.762;2024-03-22T03:47:57;26.73;;;16.27;;
73869;SDS011;64924;42.140;24.762;2024-03-22T03:50:22;24.10;;;15.60;;
73869;SDS011;64924;42.140;24.762;2024-03-22T03:52:48;33.80;;;16.63;;
73869;SDS011;64924;42.140;24.762;2024-03-22T03:55:14;28.08;;;16.48;;
73869;SDS011;64924;42.140;24.762;2024-03-22T03:57:39;26.17;;;16.23;;
73869;SDS011;64924;42.140;24.762;2024-03-22T04:00:07;26.50;;;17.83;;
73869;SDS011;64924;42.140;24.762;2024-03-22T04:02:33;29.85;;;18.48;;
73869;SDS011;64924;42.140;24.762;2024-03-22T04:04:59;26.63;;;17.05;;
73869;SDS011;64924;42.140;24.762;2024-03-22T04:07:24;26.75;;;17.92;;
73869;SDS011;64924;42.140;24.762;2024-03-22T04:09:49;30.52;;;18.17;;
73869;SDS011;64924;42.140;24.762;2024-03-22T04:12:15;31.02;;;18.77;;
73869;SDS011;64924;42.140;24.762;2024-03-22T04:14:40;31.65;;;19.05;;
73869;SDS011;64924;42.140;24.762;2024-03-22T04:17:06;33.05;;;20.08;;
73869;SDS011;64924;42.140;24.762;2024-03-22T04:19:32;34.22;;;19.58;;
73869;SDS011;64924;42.140;24.762;2024-03-22T04:21:57;35.95;;;20.50;;
73869;SDS011;64924;42.140;24.762;2024-03-22T04:24:23;30.73;;;19.85;;
73869;SDS011;64924;42.140;24.762;2024-03-22T04:26:48;32.42;;;20.83;;
73869;SDS011;64924;42.140;24.762;2024-03-22T04:29:14;34.60;;;19.10;;
73869;SDS011;64924;42.140;24.762;2024-03-22T04:31:39;36.85;;;20.30;;
73869;SDS011;64924;42.140;24.762;2024-03-22T04:34:07;32.05;;;20.33;;
73869;SDS011;64924;42.140;24.762;2024-03-22T04:36:32;35.42;;;20.85;;
73869;SDS011;64924;42.140;24.762;2024-03-22T04:38:58;32.22;;;20.00;;
73869;SDS011;64924;42.140;24.762;2024-03-22T04:41:24;31.83;;;18.60;;
73869;SDS011;64924;42.140;24.762;2024-03-22T04:43:49;25.15;;;18.05;;
73869;SDS011;64924;42.140;24.762;2024-03-22T04:46:15;27.58;;;17.92;;
73869;SDS011;64924;42.140;24.762;2024-03-22T04:48:40;30.95;;;17.17;;
73869;SDS011;64924;42.140;24.762;2024-03-22T04:51:06;22.70;;;16.33;;
73869;SDS011;64924;42.140;24.762;2024-03-22T04:53:31;27.58;;;15.38;;
73869;SDS011;64924;42.140;24.762;2024-03-22T04:55:57;23.83;;;16.40;;
73869;SDS011;64924;42.140;24.762;2024-03-22T04:58:22;27.92;;;15.20;;
73869;SDS011;64924;42.140;24.762;2024-03-22T05:00:48;18.80;;;13.52;;
73869;SDS011;64924;42.140;24.762;2024-03-22T05:03:15;19.60;;;13.25;;
73869;SDS011;64924;42.140;24.762;2024-03-22T05:05:41;21.80;;;13.63;;
73869;SDS011;64924;42.140;24.762;2024-03-22T05:08:08;22.30;;;14.40;;
73869;SDS011;64924;42.140;24.762;2024-03-22T05:10:34;20.20;;;13.15;;
73869;SDS011;64924;42.140;24.762;2024-03-22T05:13:00;22.42;;;15.13;;
73869;SDS011;64924;42.140;24.762;2024-03-22T05:15:26;22.63;;;13.88;;
73869;SDS011;64924;42.140;24.762;2024-03-22T05:17:52;19.95;;;13.57;;
73869;SDS011;64924;42.140;24.762;2024-03-22T05:20:18;22.65;;;13.90;;
73869;SDS011;64924;42.140;24.762;2024-03-22T05:22:43;22.30;;;13.23;;
73869;SDS011;64924;42.140;24.762;2024-03-22T05:25:09;20.33;;;12.70;;
73869;SDS011;64924;42.140;24.762;2024-03-22T05:27:35;21.65;;;13.43;;
73869;SDS011;64924;42.140;24.762;2024-03-22T05:30:01;20.63;;;13.05;;
73869;SDS011;64924;42.140;24.762;2024-03-22T05:32:29;22.90;;;14.55;;
73869;SDS011;64924;42.140;24.762;2024-03-22T05:34:55;30.35;;;14.30;;
73869;SDS011;64924;42.140;24.762;2024-03-22T05:37:21;24.17;;;14.32;;
73869;SDS011;64924;42.140;24.762;2024-03-22T05:39:47;26.20;;;14.50;;
73869;SDS011;64924;42.140;24.762;2024-03-22T05:42:12;27.42;;;15.88;;
73869;SDS011;64924;42.140;24.762;2024-03-22T05:44:38;22.65;;;14.95;;
73869;SDS011;64924;42.140;24.762;2024-03-22T05:47:04;21.92;;;13.88;;
73869;SDS011;64924;42.140;24.762;2024-03-22T05:49:29;26.63;;;13.90;;
73869;SDS011;64924;42.140;24.762;2024-03-22T05:51:55;27.88;;;15.27;;
73869;SDS011;64924;42.140;24.762;2024-03-22T05:54:20;28.27;;;14.98;;
73869;SDS011;64924;42.140;24.762;2024-03-22T05:56:46;32.03;;;14.88;;
73869;SDS011;64924;42.140;24.762;2024-03-22T05:59:11;22.17;;;14.20;;
73869;SDS011;64924;42.140;24.762;2024-03-22T06:01:37;22.10;;;12.82;;
73869;SDS011;64924;42.140;24.762;2024-03-22T06:04:05;19.05;;;13.35;;
73869;SDS011;64924;42.140;24.762;2024-03-22T06:06:34;23.35;;;13.05;;
73869;SDS011;64924;42.140;24.762;2024-03-22T06:09:01;33.20;;;13.57;;
73869;SDS011;64924;42.140;24.762;2024-03-22T06:11:29;17.33;;;12.50;;
73869;SDS011;64924;42.140;24.762;2024-03-22T06:13:55;23.50;;;13.00;;
73869;SDS011;64924;42.140;24.762;2024-03-22T06:16:21;20.90;;;11.88;;
73869;SDS011;64924;42.140;24.762;2024-03-22T06:18:46;21.90;;;11.80;;
73869;SDS011;64924;42.140;24.762;2024-03-22T06:21:13;21.52;;;11.98;;
73869;SDS011;64924;42.140;24.762;2024-03-22T06:23:39;21.65;;;11.70;;
73869;SDS011;64924;42.140;24.762;2024-03-22T06:26:05;19.77;;;11.57;;
73869;SDS011;64924;42.140;24.762;2024-03-22T06:28:30;23.50;;;12.38;;
73869;SDS011;64924;42.140;24.762;2024-03-22T06:30:56;20.05;;;12.18;;
73869;SDS011;64924;42.140;24.762;2024-03-22T06:33:21;20.70;;;11.52;;
73869;SDS011;64924;42.140;24.762;2024-03-22T06:35:47;19.42;;;12.38;;
73869;SDS011;64924;42.140;24.762;2024-03-22T06:38:12;25.73;;;13.75;;
73869;SDS011;64924;42.140;24.762;2024-03-22T06:40:38;26.20;;;12.90;;
73869;SDS011;64924;42.140;24.762;2024-03-22T06:43:04;21.45;;;12.60;;
73869;SDS011;64924;42.140;24.762;2024-03-22T06:45:32;20.98;;;12.32;;
73869;SDS011;64924;42.140;24.762;2024-03-22T06:47:57;21.92;;;12.77;;
73869;SDS011;64924;42.140;24.762;2024-03-22T06:50:25;22.08;;;11.82;;
73869;SDS011;64924;42.140;24.762;2024-03-22T06:52:51;15.45;;;11.00;;
73869;SDS011;64924;42.140;24.762;2024-03-22T06:55:20;10.98;;;9.15;;
73869;SDS011;64924;42.140;24.762;2024-03-22T06:57:50;14.45;;;10.98;;
73869;SDS011;64924;42.140;24.762;2024-03-22T07:00:16;16.25;;;10.35;;
73869;SDS011;64924;42.140;24.762;2024-03-22T07:02:42;19.45;;;13.75;;
73869;SDS011;64924;42.140;24.762;2024-03-22T07:05:09;22.13;;;11.07;;
73869;SDS011;64924;42.140;24.762;2024-03-22T07:07:35;13.68;;;10.02;;
73869;SDS011;64924;42.140;24.762;2024-03-22T07:10:01;13.25;;;9.90;;
73869;SDS011;64924;42.140;24.762;2024-03-22T07:12:27;13.98;;;10.27;;
73869;SDS011;64924;42.140;24.762;2024-03-22T07:14:53;16.50;;;8.77;;
73869;SDS011;64924;42.140;24.762;2024-03-22T07:17:20;13.90;;;8.52;;
73869;SDS011;64924;42.140;24.762;2024-03-22T07:19:52;14.32;;;9.32;;
73869;SDS011;64924;42.140;24.762;2024-03-22T07:22:19;13.88;;;8.48;;
73869;SDS011;64924;42.140;24.762;2024-03-22T07:24:45;15.82;;;9.38;;
73869;SDS011;64924;42.140;24.762;2024-03-22T07:27:10;12.50;;;9.57;;
73869;SDS011;64924;42.140;24.762;2024-03-22T07:29:36;15.63;;;10.00;;
73869;SDS011;64924;42.140;24.762;2024-03-22T07:32:02;15.25;;;9.85;;
73869;SDS011;64924;42.140;24.762;2024-03-22T07:34:28;13.13;;;9.52;;
73869;SDS011;64924;42.140;24.762;2024-03-22T07:36:54;14.77;;;9.55;;
73869;SDS011;64924;42.140;24.762;2024-03-22T07:39:19;14.85;;;9.48;;
73869;SDS011;64924;42.140;24.762;2024-03-22T07:41:45;17.50;;;10.93;;
73869;SDS011;64924;42.140;24.762;2024-03-22T07:44:10;14.70;;;9.43;;
73869;SDS011;64924;42.140;24.762;2024-03-22T07:46:36;14.95;;;9.95;;
73869;SDS011;64924;42.140;24.762;2024-03-22T07:49:01;16.73;;;9.45;;
73869;SDS011;64924;42.140;24.762;2024-03-22T07:51:29;12.60;;;8.93;;
73869;SDS011;64924;42.140;24.762;2024-03-22T07:53:55;13.40;;;9.27;;
73869;SDS011;64924;42.140;24.762;2024-03-22T07:56:20;14.60;;;9.48;;
73869;SDS011;64924;42.140;24.762;2024-03-22T07:58:46;18.02;;;9.52;;
73869;SDS011;64924;42.140;24.762;2024-03-22T08:01:12;20.50;;;10.10;;
73869;SDS011;64924;42.140;24.762;2024-03-22T08:03:37;12.00;;;9.50;;
73869;SDS011;64924;42.140;24.762;2024-03-22T08:06:03;12.43;;;9.57;;
73869;SDS011;64924;42.140;24.762;2024-03-22T08:08:28;19.45;;;9.05;;
73869;SDS011;64924;42.140;24.762;2024-03-22T08:10:54;12.88;;;9.07;;
73869;SDS011;64924;42.140;24.762;2024-03-22T08:13:20;11.90;;;8.90;;
73869;SDS011;64924;42.140;24.762;2024-03-22T08:15:46;13.18;;;8.80;;
73869;SDS011;64924;42.140;24.762;2024-03-22T08:18:11;11.23;;;8.40;;
73869;SDS011;64924;42.140;24.762;2024-03-22T08:20:37;14.38;;;9.30;;
73869;SDS011;64924;42.140;24.762;2024-03-22T08:23:04;12.00;;;9.30;;
73869;SDS011;64924;42.140;24.762;2024-03-22T08:25:30;15.77;;;9.00;;
73869;SDS011;64924;42.140;24.762;2024-03-22T08:27:58;14.73;;;8.88;;
73869;SDS011;64924;42.140;24.762;2024-03-22T08:30:24;15.52;;;8.88;;
73869;SDS011;64924;42.140;24.762;2024-03-22T08:32:50;13.00;;;8.88;;
73869;SDS011;64924;42.140;24.762;2024-03-22T08:35:16;13.05;;;8.50;;
73869;SDS011;64924;42.140;24.762;2024-03-22T08:37:47;16.77;;;9.32;;
73869;SDS011;64924;42.140;24.762;2024-03-22T08:40:12;11.32;;;7.82;;
73869;SDS011;64924;42.140;24.762;2024-03-22T08:42:39;13.40;;;8.35;;
73869;SDS011;64924;42.140;24.762;2024-03-22T08:45:05;11.13;;;8.13;;
73869;SDS011;64924;42.140;24.762;2024-03-22T08:47:31;11.85;;;8.65;;
73869;SDS011;64924;42.140;24.762;2024-03-22T08:49:58;19.67;;;8.20;;
73869;SDS011;64924;42.140;24.762;2024-03-22T08:52:24;19.90;;;8.82;;
73869;SDS011;64924;42.140;24.762;2024-03-22T08:54:50;15.52;;;8.35;;
73869;SDS011;64924;42.140;24.762;2024-03-22T08:57:17;16.05;;;9.73;;
73869;SDS011;64924;42.140;24.762;2024-03-22T08:59:42;15.63;;;8.77;;
73869;SDS011;64924;42.140;24.762;2024-03-22T09:02:08;15.75;;;8.98;;
73869;SDS011;64924;42.140;24.762;2024-03-22T09:04:33;13.15;;;9.18;;
73869;SDS011;64924;42.140;24.762;2024-03-22T09:06:59;13.32;;;7.20;;
73869;SDS011;64924;42.140;24.762;2024-03-22T09:09:24;10.43;;;6.57;;
73869;SDS011;64924;42.140;24.762;2024-03-22T09:11:50;13.38;;;7.45;;
73869;SDS011;64924;42.140;24.762;2024-03-22T09:14:15;10.25;;;7.35;;
73869;SDS011;64924;42.140;24.762;2024-03-22T09:16:42;10.35;;;6.82;;
73869;SDS011;64924;42.140;24.762;2024-03-22T09:19:07;12.77;;;7.78;;
73869;SDS011;64924;42.140;24.762;2024-03-22T09:21:33;9.15;;;6.90;;
73869;SDS011;64924;42.140;24.762;2024-03-22T09:23:59;11.10;;;6.97;;
73869;SDS011;64924;42.140;24.762;2024-03-22T09:26:24;12.05;;;6.97;;
73869;SDS011;64924;42.140;24.762;2024-03-22T09:28:50;12.75;;;6.97;;
73869;SDS011;64924;42.140;24.762;2024-03-22T09:31:15;8.40;;;6.88;;
73869;SDS011;64924;42.140;24.762;2024-03-22T09:33:42;13.07;;;6.88;;
73869;SDS011;64924;42.140;24.762;2024-03-22T09:36:08;13.20;;;7.03;;
73869;SDS011;64924;42.140;24.762;2024-03-22T09:38:33;9.07;;;6.75;;
73869;SDS011;64924;42.140;24.762;2024-03-22T09:40:59;10.63;;;6.10;;
73869;SDS011;64924;42.140;24.762;2024-03-22T09:43:24;8.23;;;6.35;;
73869;SDS011;64924;42.140;24.762;2024-03-22T09:45:52;12.02;;;6.78;;
73869;SDS011;64924;42.140;24.762;2024-03-22T09:48:19;10.80;;;6.45;;
73869;SDS011;64924;42.140;24.762;2024-03-22T09:50:48;9.98;;;6.18;;
73869;SDS011;64924;42.140;24.762;2024-03-22T09:53:20;6.53;;;5.28;;
73869;SDS011;64924;42.140;24.762;2024-03-22T09:55:47;11.38;;;6.35;;
73869;SDS011;64924;42.140;24.762;2024-03-22T09:58:14;14.07;;;5.70;;
73869;SDS011;64924;42.140;24.762;2024-03-22T10:00:41;11.02;;;5.20;;
73869;SDS011;64924;42.140;24.762;2024-03-22T10:03:07;7.30;;;5.00;;
73869;SDS011;64924;42.140;24.762;2024-03-22T10:05:34;10.77;;;5.10;;
73869;SDS011;64924;42.140;24.762;2024-03-22T10:07:59;9.18;;;4.93;;
73869;SDS011;64924;42.140;24.762;2024-03-22T10:10:25;7.70;;;4.88;;
73869;SDS011;64924;42.140;24.762;2024-03-22T10:12:51;7.40;;;4.82;;
73869;SDS011;64924;42.140;24.762;2024-03-22T10:15:18;7.47;;;5.20;;
73869;SDS011;64924;42.140;24.762;2024-03-22T10:17:43;10.90;;;6.22;;
73869;SDS011;64924;42.140;24.762;2024-03-22T10:20:12;9.50;;;5.55;;
73869;SDS011;64924;42.140;24.762;2024-03-22T10:22:47;7.00;;;4.90;;
73869;SDS011;64924;42.140;24.762;2024-03-22T10:25:14;7.97;;;5.57;;
73869;SDS011;64924;42.140;24.762;2024-03-22T10:27:40;9.32;;;4.70;;
73869;SDS011;64924;42.140;24.762;2024-03-22T10:30:07;14.57;;;5.28;;
73869;SDS011;64924;42.140;24.762;2024-03-22T10:32:35;12.23;;;5.75;;
73869;SDS011;64924;42.140;24.762;2024-03-22T10:35:02;9.13;;;4.72;;
73869;SDS011;64924;42.140;24.762;2024-03-22T10:37:32;10.13;;;5.55;;
73869;SDS011;64924;42.140;24.762;2024-03-22T10:39:59;8.02;;;4.88;;
73869;SDS011;64924;42.140;24.762;2024-03-22T10:42:32;8.23;;;4.93;;
73869;SDS011;64924;42.140;24.762;2024-03-22T10:44:59;9.82;;;4.13;;
73869;SDS011;64924;42.140;24.762;2024-03-22T10:47:25;10.05;;;5.43;;
73869;SDS011;64924;42.140;24.762;2024-03-22T10:49:55;6.65;;;4.35;;
73869;SDS011;64924;42.140;24.762;2024-03-22T10:52:35;7.60;;;4.63;;
73869;SDS011;64924;42.140;24.762;2024-03-22T10:55:06;14.63;;;7.25;;
73869;SDS011;64924;42.140;24.762;2024-03-22T10:57:38;11.88;;;5.65;;
73869;SDS011;64924;42.140;24.762;2024-03-22T11:00:08;9.40;;;6.50;;
73869;SDS011;64924;42.140;24.762;2024-03-22T11:02:35;11.15;;;6.90;;
73869;SDS011;64924;42.140;24.762;2024-03-22T11:05:02;9.38;;;5.78;;
73869;SDS011;64924;42.140;24.762;2024-03-22T11:07:32;10.57;;;5.57;;
73869;SDS011;64924;42.140;24.762;2024-03-22T11:09:58;7.88;;;4.93;;
73869;SDS011;64924;42.140;24.762;2024-03-22T11:12:26;8.55;;;4.38;;
73869;SDS011;64924;42.140;24.762;2024-03-22T11:14:53;9.20;;;4.68;;
73869;SDS011;64924;42.140;24.762;2024-03-22T11:17:19;7.40;;;3.30;;
73869;SDS011;64924;42.140;24.762;2024-03-22T11:19:48;6.07;;;2.80;;
73869;SDS011;64924;42.140;24.762;2024-03-22T11:22:13;4.28;;;3.03;;
73869;SDS011;64924;42.140;24.762;2024-03-22T11:24:39;8.32;;;4.55;;
73869;SDS011;64924;42.140;24.762;2024-03-22T11:27:06;5.78;;;3.60;;
73869;SDS011;64924;42.140;24.762;2024-03-22T11:29:31;5.75;;;4.05;;
73869;SDS011;64924;42.140;24.762;2024-03-22T11:31:57;5.55;;;3.83;;
73869;SDS011;64924;42.140;24.762;2024-03-22T11:34:23;6.30;;;3.30;;
73869;SDS011;64924;42.140;24.762;2024-03-22T11:36:48;6.97;;;4.30;;
73869;SDS011;64924;42.140;24.762;2024-03-22T11:39:15;7.65;;;3.63;;
73869;SDS011;64924;42.140;24.762;2024-03-22T11:41:42;5.85;;;3.45;;
73869;SDS011;64924;42.140;24.762;2024-03-22T11:44:08;5.68;;;3.38;;
73869;SDS011;64924;42.140;24.762;2024-03-22T11:46:34;4.95;;;2.90;;
73869;SDS011;64924;42.140;24.762;2024-03-22T11:48:59;6.55;;;2.63;;
73869;SDS011;64924;42.140;24.762;2024-03-22T11:51:25;6.30;;;3.45;;
73869;SDS011;64924;42.140;24.762;2024-03-22T11:53:51;5.68;;;2.88;;
73869;SDS011;64924;42.140;24.762;2024-03-22T11:56:19;9.63;;;3.38;;
73869;SDS011;64924;42.140;24.762;2024-03-22T11:58:45;3.88;;;2.90;;
73869;SDS011;64924;42.140;24.762;2024-03-22T12:01:12;4.00;;;2.70;;
73869;SDS011;64924;42.140;24.762;2024-03-22T12:03:39;4.05;;;2.83;;
73869;SDS011;64924;42.140;24.762;2024-03-22T12:06:05;5.05;;;3.10;;
73869;SDS011;64924;42.140;24.762;2024-03-22T12:08:34;7.60;;;2.75;;
73869;SDS011;64924;42.140;24.762;2024-03-22T12:11:00;4.78;;;3.40;;
73869;SDS011;64924;42.140;24.762;2024-03-22T12:13:25;6.70;;;3.20;;
73869;SDS011;64924;42.140;24.762;2024-03-22T12:15:51;3.28;;;2.45;;
73869;SDS011;64924;42.140;24.762;2024-03-22T12:18:17;4.97;;;2.67;;
73869;SDS011;64924;42.140;24.762;2024-03-22T12:20:42;4.70;;;2.65;;
73869;SDS011;64924;42.140;24.762;2024-03-22T12:23:07;6.22;;;2.75;;
73869;SDS011;64924;42.140;24.762;2024-03-22T12:25:33;4.07;;;2.80;;
73869;SDS011;64924;42.140;24.762;2024-03-22T12:27:59;4.78;;;2.70;;
73869;SDS011;64924;42.140;24.762;2024-03-22T12:30:24;7.10;;;2.85;;
73869;SDS011;64924;42.140;24.762;2024-03-22T12:32:51;10.30;;;2.85;;
73869;SDS011;64924;42.140;24.762;2024-03-22T12:35:16;4.13;;;3.00;;
73869;SDS011;64924;42.140;24.762;2024-03-22T12:37:42;3.72;;;2.60;;
73869;SDS011;64924;42.140;24.762;2024-03-22T12:40:08;4.22;;;2.85;;
73869;SDS011;64924;42.140;24.762;2024-03-22T12:42:34;3.10;;;2.30;;
73869;SDS011;64924;42.140;24.762;2024-03-22T12:45:00;3.33;;;2.40;;
73869;SDS011;64924;42.140;24.762;2024-03-22T12:47:25;5.97;;;2.70;;
73869;SDS011;64924;42.140;24.762;2024-03-22T12:49:51;4.35;;;2.65;;
73869;SDS011;64924;42.140;24.762;2024-03-22T12:52:16;5.90;;;2.72;;
73869;SDS011;64924;42.140;24.762;2024-03-22T12:54:42;5.47;;;2.50;;
73869;SDS011;64924;42.140;24.762;2024-03-22T12:57:07;5.07;;;2.50;;
73869;SDS011;64924;42.140;24.762;2024-03-22T12:59:36;4.00;;;2.50;;
73869;SDS011;64924;42.140;24.762;2024-03-22T13:02:01;4.13;;;2.70;;
73869;SDS011;64924;42.140;24.762;2024-03-22T13:04:27;4.25;;;3.17;;
73869;SDS011;64924;42.140;24.762;2024-03-22T13:06:52;6.70;;;3.45;;
73869;SDS011;64924;42.140;24.762;2024-03-22T13:09:18;8.13;;;3.67;;
73869;SDS011;64924;42.140;24.762;2024-03-22T13:11:46;5.57;;;3.17;;
73869;SDS011;64924;42.140;24.762;2024-03-22T13:14:13;6.80;;;2.60;;
73869;SDS011;64924;42.140;24.762;2024-03-22T13:16:39;6.07;;;2.58;;
73869;SDS011;64924;42.140;24.762;2024-03-22T13:19:05;5.53;;;3.03;;
73869;SDS011;64924;42.140;24.762;2024-03-22T13:21:33;3.08;;;2.17;;
73869;SDS011;64924;42.140;24.762;2024-03-22T13:23:59;4.80;;;2.53;;
73869;SDS011;64924;42.140;24.762;2024-03-22T13:26:25;3.58;;;2.42;;
73869;SDS011;64924;42.140;24.762;2024-03-22T13:28:50;3.25;;;2.40;;
73869;SDS011;64924;42.140;24.762;2024-03-22T13:31:16;6.20;;;2.85;;
73869;SDS011;64924;42.140;24.762;2024-03-22T13:33:42;4.93;;;2.50;;
73869;SDS011;64924;42.140;24.762;2024-03-22T13:36:08;4.03;;;2.80;;
73869;SDS011;64924;42.140;24.762;2024-03-22T13:38:33;3.72;;;2.30;;
73869;SDS011;64924;42.140;24.762;2024-03-22T13:40:59;4.40;;;2.83;;
73869;SDS011;64924;42.140;24.762;2024-03-22T13:43:26;3.28;;;2.30;;
73869;SDS011;64924;42.140;24.762;2024-03-22T13:45:52;3.50;;;2.30;;
73869;SDS011;64924;42.140;24.762;2024-03-22T13:48:22;4.38;;;2.30;;
73869;SDS011;64924;42.140;24.762;2024-03-22T13:50:52;4.18;;;2.45;;
73869;SDS011;64924;42.140;24.762;2024-03-22T13:55:47;3.42;;;2.28;;
73869;SDS011;64924;42.140;24.762;2024-03-22T13:58:15;5.35;;;2.47;;
73869;SDS011;64924;42.140;24.762;2024-03-22T14:00:40;4.78;;;2.80;;
73869;SDS011;64924;42.140;24.762;2024-03-22T14:03:06;3.40;;;2.60;;
73869;SDS011;64924;42.140;24.762;2024-03-22T14:05:31;4.00;;;2.67;;
73869;SDS011;64924;42.140;24.762;2024-03-22T14:07:58;6.38;;;2.90;;
73869;SDS011;64924;42.140;24.762;2024-03-22T14:10:23;4.03;;;2.42;;
73869;SDS011;64924;42.140;24.762;2024-03-22T14:12:51;4.20;;;2.60;;
73869;SDS011;64924;42.140;24.762;2024-03-22T14:15:17;3.83;;;2.47;;